Thursday, January 17, 2019, 8:48 PM EST
Back to Local

KHWV, Shirley Brookhaven Airport

Location: Shirley, NY, United States Lat: 40.817
Local Time: 8:48 PM EST ( 1:48 GMT) Lon: -72.867
Time Zone: US/Eastern Elev: 82 ft

Show me the last for .
Show Coded

Time T Td Feel RH Dir Speed Gust Alt SLP Vis Weather Sky Remarks
2019-01-17 19:56 25 5 21 41 Variable 3 - 30.31 30.31 10 CLR None
2019-01-17 18:56 27 5 - 38 - Calm - 30.33 30.33 10 CLR 6-hr Min Temp (7pm): 27.0°F
6-hr Max Temp (7pm): 30.0°F
2019-01-17 17:56 27 3 - 35 - Calm - 30.34 30.34 10 FEW120 None
2019-01-17 16:56 28 3 22 33 140° 6 - 30.32 30.32 10 CLR None
2019-01-17 15:56 29 1 25 29 100° 3 - 30.34 30.34 10 SCT120 None
2019-01-17 14:56 30 1 - 28 - Calm - 30.35 30.35 10 CLR None
2019-01-17 13:56 30 2 23 29 Variable 7 - 30.35 30.35 10 CLR None
2019-01-17 12:56 30 3 22 30 340° 8 - 30.37 30.37 10 CLR 6-hr Min Temp (1pm): 21.0°F
6-hr Max Temp (1pm): 30.9°F
2019-01-17 11:56 29 4 20 33 340° 10 - 30.40 30.40 10 CLR None
2019-01-17 10:56 28 2 20 31 360° 8 - 30.42 30.43 10 CLR None
2019-01-17 09:56 27 4 13 36 360° 14 21 30.42 30.42 10 CLR None
2019-01-17 08:56 26 10 17 50 10° 9 - 30.41 30.41 10 CLR None
2019-01-17 07:56 23 11 - 59 - Calm - 30.39 30.39 10 CLR None
2019-01-17 06:56 22 11 16 62 330° 5 - 30.37 30.37 10 CLR 6-hr Min Temp (7am): 21.9°F
6-hr Max Temp (7am): 30.9°F
2019-01-17 05:56 23 10 17 56 320° 5 - 30.34 30.34 10 CLR None
2019-01-17 04:56 25 10 18 52 330° 6 - 30.32 30.32 10 CLR None
2019-01-17 03:56 27 9 16 45 350° 13 - 30.30 30.30 10 CLR None
2019-01-17 02:56 28 10 20 46 340° 8 - 30.28 30.28 10 CLR None
2019-01-17 01:56 29 12 20 48 330° 10 - 30.27 30.27 10 CLR None
2019-01-17 00:56 30 13 22 48 300° 9 - 30.23 30.23 10 CLR 6-hr Min Temp (1am): 30.0°F
6-hr Max Temp (1am): 35.1°F
2019-01-16 23:56 33 14 25 44 310° 9 - 30.21 30.21 10 CLR 24-hr Min Temp (12am): 19.0°F
24-hr Max Temp (12am): 39.0°F
2019-01-16 22:56 34 16 23 47 290° 10 20 30.19 30.19 10 CLR None
2019-01-16 21:56 32 20 25 60 290° 8 - 30.16 30.16 10 CLR None
2019-01-16 20:56 32 21 26 63 260° 7 - 30.13 30.13 10 SCT060 None

Support USWX by starting your Amazon purchase here.